sensor_id;sensor_type;location;lat;lon;timestamp;P1;durP1;ratioP1;P2;durP2;ratioP2
47912;SDS011;33676;51.006;17.180;2023-08-01T00:00:07;2.60;;;2.50;;
47912;SDS011;33676;51.006;17.180;2023-08-01T00:02:56;2.70;;;2.30;;
47912;SDS011;33676;51.006;17.180;2023-08-01T00:05:25;2.80;;;2.60;;
47912;SDS011;33676;51.006;17.180;2023-08-01T00:07:54;3.30;;;2.80;;
47912;SDS011;33676;51.006;17.180;2023-08-01T00:10:23;9.60;;;4.10;;
47912;SDS011;33676;51.006;17.180;2023-08-01T00:12:51;3.50;;;3.10;;
47912;SDS011;33676;51.006;17.180;2023-08-01T00:15:20;3.10;;;2.90;;
47912;SDS011;33676;51.006;17.180;2023-08-01T00:17:48;2.10;;;2.00;;
47912;SDS011;33676;51.006;17.180;2023-08-01T00:20:17;2.80;;;2.60;;
47912;SDS011;33676;51.006;17.180;2023-08-01T00:22:45;2.90;;;2.60;;
47912;SDS011;33676;51.006;17.180;2023-08-01T00:25:14;2.70;;;2.50;;
47912;SDS011;33676;51.006;17.180;2023-08-01T00:27:42;5.00;;;3.00;;
47912;SDS011;33676;51.006;17.180;2023-08-01T00:30:11;3.10;;;2.70;;
47912;SDS011;33676;51.006;17.180;2023-08-01T00:32:39;3.90;;;3.00;;
47912;SDS011;33676;51.006;17.180;2023-08-01T00:35:08;2.30;;;2.10;;
47912;SDS011;33676;51.006;17.180;2023-08-01T00:37:37;4.60;;;3.00;;
47912;SDS011;33676;51.006;17.180;2023-08-01T00:40:06;4.60;;;2.80;;
47912;SDS011;33676;51.006;17.180;2023-08-01T00:42:36;4.20;;;2.10;;
47912;SDS011;33676;51.006;17.180;2023-08-01T00:45:08;3.10;;;2.50;;
47912;SDS011;33676;51.006;17.180;2023-08-01T00:47:37;3.80;;;2.70;;
47912;SDS011;33676;51.006;17.180;2023-08-01T00:50:07;2.30;;;2.20;;
47912;SDS011;33676;51.006;17.180;2023-08-01T00:52:35;3.00;;;2.70;;
47912;SDS011;33676;51.006;17.180;2023-08-01T00:55:05;1.60;;;1.60;;
47912;SDS011;33676;51.006;17.180;2023-08-01T00:57:34;2.20;;;2.10;;
47912;SDS011;33676;51.006;17.180;2023-08-01T01:00:03;2.70;;;2.50;;
47912;SDS011;33676;51.006;17.180;2023-08-01T01:02:32;2.40;;;2.10;;
47912;SDS011;33676;51.006;17.180;2023-08-01T01:05:01;2.70;;;2.50;;
47912;SDS011;33676;51.006;17.180;2023-08-01T01:07:31;2.40;;;2.20;;
47912;SDS011;33676;51.006;17.180;2023-08-01T01:09:59;2.40;;;2.10;;
47912;SDS011;33676;51.006;17.180;2023-08-01T01:12:28;2.70;;;2.50;;
47912;SDS011;33676;51.006;17.180;2023-08-01T01:14:56;2.00;;;1.80;;
47912;SDS011;33676;51.006;17.180;2023-08-01T01:17:25;3.20;;;2.40;;
47912;SDS011;33676;51.006;17.180;2023-08-01T01:19:53;5.80;;;2.40;;
47912;SDS011;33676;51.006;17.180;2023-08-01T01:22:22;4.40;;;2.90;;
47912;SDS011;33676;51.006;17.180;2023-08-01T01:24:50;3.50;;;3.10;;
47912;SDS011;33676;51.006;17.180;2023-08-01T01:27:22;2.50;;;2.20;;
47912;SDS011;33676;51.006;17.180;2023-08-01T01:29:52;3.20;;;3.00;;
47912;SDS011;33676;51.006;17.180;2023-08-01T01:32:21;3.70;;;2.30;;
47912;SDS011;33676;51.006;17.180;2023-08-01T01:34:51;6.10;;;2.60;;
47912;SDS011;33676;51.006;17.180;2023-08-01T01:37:19;2.40;;;2.30;;
47912;SDS011;33676;51.006;17.180;2023-08-01T01:39:48;4.80;;;1.70;;
47912;SDS011;33676;51.006;17.180;2023-08-01T01:42:16;2.00;;;1.90;;
47912;SDS011;33676;51.006;17.180;2023-08-01T01:44:45;2.40;;;2.20;;
47912;SDS011;33676;51.006;17.180;2023-08-01T01:47:13;1.90;;;1.60;;
47912;SDS011;33676;51.006;17.180;2023-08-01T01:49:41;2.50;;;2.30;;
47912;SDS011;33676;51.006;17.180;2023-08-01T01:52:10;1.80;;;1.70;;
47912;SDS011;33676;51.006;17.180;2023-08-01T01:54:38;3.30;;;2.50;;
47912;SDS011;33676;51.006;17.180;2023-08-01T01:57:07;2.40;;;2.20;;
47912;SDS011;33676;51.006;17.180;2023-08-01T01:59:35;2.60;;;2.40;;
47912;SDS011;33676;51.006;17.180;2023-08-01T02:02:04;2.10;;;1.90;;
47912;SDS011;33676;51.006;17.180;2023-08-01T02:04:33;3.70;;;2.30;;
47912;SDS011;33676;51.006;17.180;2023-08-01T02:07:02;2.60;;;2.10;;
47912;SDS011;33676;51.006;17.180;2023-08-01T02:09:31;2.50;;;2.30;;
47912;SDS011;33676;51.006;17.180;2023-08-01T02:11:59;2.50;;;2.20;;
47912;SDS011;33676;51.006;17.180;2023-08-01T02:14:28;2.50;;;2.20;;
47912;SDS011;33676;51.006;17.180;2023-08-01T02:16:56;3.10;;;2.30;;
47912;SDS011;33676;51.006;17.180;2023-08-01T02:19:25;2.50;;;2.30;;
47912;SDS011;33676;51.006;17.180;2023-08-01T02:21:54;5.90;;;2.30;;
47912;SDS011;33676;51.006;17.180;2023-08-01T02:24:22;5.30;;;2.70;;
47912;SDS011;33676;51.006;17.180;2023-08-01T02:26:51;2.80;;;2.60;;
47912;SDS011;33676;51.006;17.180;2023-08-01T02:29:20;2.20;;;2.00;;
47912;SDS011;33676;51.006;17.180;2023-08-01T02:31:48;3.10;;;2.90;;
47912;SDS011;33676;51.006;17.180;2023-08-01T02:34:17;2.40;;;2.30;;
47912;SDS011;33676;51.006;17.180;2023-08-01T02:36:45;2.20;;;2.00;;
47912;SDS011;33676;51.006;17.180;2023-08-01T02:39:14;3.30;;;2.90;;
47912;SDS011;33676;51.006;17.180;2023-08-01T02:41:42;2.50;;;1.80;;
47912;SDS011;33676;51.006;17.180;2023-08-01T02:44:10;4.80;;;2.60;;
47912;SDS011;33676;51.006;17.180;2023-08-01T02:46:39;2.80;;;2.10;;
47912;SDS011;33676;51.006;17.180;2023-08-01T02:49:08;6.60;;;2.50;;
47912;SDS011;33676;51.006;17.180;2023-08-01T02:51:36;2.30;;;2.10;;
47912;SDS011;33676;51.006;17.180;2023-08-01T02:54:05;4.20;;;2.70;;
47912;SDS011;33676;51.006;17.180;2023-08-01T02:56:33;2.80;;;2.50;;
47912;SDS011;33676;51.006;17.180;2023-08-01T02:59:01;2.50;;;2.30;;
47912;SDS011;33676;51.006;17.180;2023-08-01T03:01:32;3.70;;;2.60;;
47912;SDS011;33676;51.006;17.180;2023-08-01T03:04:04;2.30;;;2.10;;
47912;SDS011;33676;51.006;17.180;2023-08-01T03:06:34;2.80;;;2.00;;
47912;SDS011;33676;51.006;17.180;2023-08-01T03:09:03;2.60;;;1.90;;
47912;SDS011;33676;51.006;17.180;2023-08-01T03:11:35;3.50;;;1.90;;
47912;SDS011;33676;51.006;17.180;2023-08-01T03:14:05;3.20;;;2.40;;
47912;SDS011;33676;51.006;17.180;2023-08-01T03:16:33;1.90;;;1.80;;
47912;SDS011;33676;51.006;17.180;2023-08-01T03:19:02;3.00;;;2.50;;
47912;SDS011;33676;51.006;17.180;2023-08-01T03:21:33;2.20;;;2.00;;
47912;SDS011;33676;51.006;17.180;2023-08-01T03:24:03;2.70;;;2.50;;
47912;SDS011;33676;51.006;17.180;2023-08-01T03:26:35;2.60;;;2.40;;
47912;SDS011;33676;51.006;17.180;2023-08-01T03:29:04;1.80;;;1.70;;
47912;SDS011;33676;51.006;17.180;2023-08-01T03:31:33;2.20;;;2.00;;
47912;SDS011;33676;51.006;17.180;2023-08-01T03:34:01;2.40;;;2.20;;
47912;SDS011;33676;51.006;17.180;2023-08-01T03:36:30;2.30;;;2.10;;
47912;SDS011;33676;51.006;17.180;2023-08-01T03:38:58;2.60;;;2.40;;
47912;SDS011;33676;51.006;17.180;2023-08-01T03:41:27;2.10;;;2.00;;
47912;SDS011;33676;51.006;17.180;2023-08-01T03:43:55;3.30;;;2.60;;
47912;SDS011;33676;51.006;17.180;2023-08-01T03:46:24;3.50;;;2.50;;
47912;SDS011;33676;51.006;17.180;2023-08-01T03:48:52;2.20;;;1.90;;
47912;SDS011;33676;51.006;17.180;2023-08-01T03:51:20;3.00;;;2.80;;
47912;SDS011;33676;51.006;17.180;2023-08-01T03:53:49;2.40;;;2.10;;
47912;SDS011;33676;51.006;17.180;2023-08-01T03:56:34;4.60;;;2.90;;
47912;SDS011;33676;51.006;17.180;2023-08-01T03:59:03;2.80;;;2.50;;
47912;SDS011;33676;51.006;17.180;2023-08-01T04:01:32;4.70;;;3.60;;
47912;SDS011;33676;51.006;17.180;2023-08-01T04:04:01;2.70;;;2.40;;
47912;SDS011;33676;51.006;17.180;2023-08-01T04:06:29;4.30;;;2.80;;
47912;SDS011;33676;51.006;17.180;2023-08-01T04:08:58;3.10;;;2.80;;
47912;SDS011;33676;51.006;17.180;2023-08-01T04:11:28;3.50;;;3.10;;
47912;SDS011;33676;51.006;17.180;2023-08-01T04:13:58;4.10;;;2.50;;
47912;SDS011;33676;51.006;17.180;2023-08-01T04:16:26;3.80;;;3.00;;
47912;SDS011;33676;51.006;17.180;2023-08-01T04:18:55;3.10;;;2.90;;
47912;SDS011;33676;51.006;17.180;2023-08-01T04:21:23;4.10;;;3.10;;
47912;SDS011;33676;51.006;17.180;2023-08-01T04:23:52;3.70;;;3.40;;
47912;SDS011;33676;51.006;17.180;2023-08-01T04:26:20;4.20;;;3.00;;
47912;SDS011;33676;51.006;17.180;2023-08-01T04:28:49;2.90;;;2.80;;
47912;SDS011;33676;51.006;17.180;2023-08-01T04:31:17;3.10;;;2.80;;
47912;SDS011;33676;51.006;17.180;2023-08-01T04:33:45;3.00;;;2.80;;
47912;SDS011;33676;51.006;17.180;2023-08-01T04:36:14;3.30;;;2.60;;
47912;SDS011;33676;51.006;17.180;2023-08-01T04:38:42;2.50;;;2.30;;
47912;SDS011;33676;51.006;17.180;2023-08-01T04:41:11;3.00;;;2.70;;
47912;SDS011;33676;51.006;17.180;2023-08-01T04:43:39;4.20;;;2.90;;
47912;SDS011;33676;51.006;17.180;2023-08-01T04:46:08;3.40;;;3.10;;
47912;SDS011;33676;51.006;17.180;2023-08-01T04:48:38;7.10;;;3.60;;
47912;SDS011;33676;51.006;17.180;2023-08-01T04:51:07;3.90;;;3.50;;
47912;SDS011;33676;51.006;17.180;2023-08-01T04:53:35;5.10;;;4.00;;
47912;SDS011;33676;51.006;17.180;2023-08-01T04:56:03;4.00;;;3.60;;
47912;SDS011;33676;51.006;17.180;2023-08-01T04:58:32;3.20;;;3.00;;
47912;SDS011;33676;51.006;17.180;2023-08-01T05:01:00;4.50;;;3.10;;
47912;SDS011;33676;51.006;17.180;2023-08-01T05:03:29;3.70;;;3.40;;
47912;SDS011;33676;51.006;17.180;2023-08-01T05:05:57;6.10;;;3.90;;
47912;SDS011;33676;51.006;17.180;2023-08-01T05:08:26;3.90;;;3.30;;
47912;SDS011;33676;51.006;17.180;2023-08-01T05:10:54;5.30;;;4.00;;
47912;SDS011;33676;51.006;17.180;2023-08-01T05:13:23;3.20;;;3.00;;
47912;SDS011;33676;51.006;17.180;2023-08-01T05:15:51;5.70;;;3.50;;
47912;SDS011;33676;51.006;17.180;2023-08-01T05:18:19;6.70;;;3.50;;
47912;SDS011;33676;51.006;17.180;2023-08-01T05:20:48;4.20;;;3.30;;
47912;SDS011;33676;51.006;17.180;2023-08-01T05:23:16;4.90;;;3.30;;
47912;SDS011;33676;51.006;17.180;2023-08-01T05:25:45;3.90;;;3.50;;
47912;SDS011;33676;51.006;17.180;2023-08-01T05:28:13;3.70;;;3.30;;
47912;SDS011;33676;51.006;17.180;2023-08-01T05:30:43;5.00;;;4.00;;
47912;SDS011;33676;51.006;17.180;2023-08-01T05:33:11;4.70;;;3.20;;
47912;SDS011;33676;51.006;17.180;2023-08-01T05:35:40;3.50;;;3.20;;
47912;SDS011;33676;51.006;17.180;2023-08-01T05:38:08;3.20;;;2.90;;
47912;SDS011;33676;51.006;17.180;2023-08-01T05:40:37;5.00;;;3.70;;
47912;SDS011;33676;51.006;17.180;2023-08-01T05:43:05;7.40;;;4.90;;
47912;SDS011;33676;51.006;17.180;2023-08-01T05:45:36;4.90;;;3.70;;
47912;SDS011;33676;51.006;17.180;2023-08-01T05:48:05;4.80;;;4.30;;
47912;SDS011;33676;51.006;17.180;2023-08-01T05:50:33;4.40;;;3.40;;
47912;SDS011;33676;51.006;17.180;2023-08-01T05:53:02;3.80;;;3.50;;
47912;SDS011;33676;51.006;17.180;2023-08-01T05:55:30;4.40;;;3.40;;
47912;SDS011;33676;51.006;17.180;2023-08-01T05:57:58;5.80;;;4.40;;
47912;SDS011;33676;51.006;17.180;2023-08-01T06:00:27;4.60;;;3.90;;
47912;SDS011;33676;51.006;17.180;2023-08-01T06:02:56;5.90;;;3.50;;
47912;SDS011;33676;51.006;17.180;2023-08-01T06:05:24;5.00;;;3.50;;
47912;SDS011;33676;51.006;17.180;2023-08-01T06:07:53;3.90;;;3.50;;
47912;SDS011;33676;51.006;17.180;2023-08-01T06:10:21;3.50;;;3.20;;
47912;SDS011;33676;51.006;17.180;2023-08-01T06:12:50;4.60;;;3.30;;
47912;SDS011;33676;51.006;17.180;2023-08-01T06:15:18;5.10;;;3.40;;
47912;SDS011;33676;51.006;17.180;2023-08-01T06:17:47;6.40;;;4.40;;
47912;SDS011;33676;51.006;17.180;2023-08-01T06:20:15;4.00;;;3.00;;
47912;SDS011;33676;51.006;17.180;2023-08-01T06:22:44;4.10;;;3.70;;
47912;SDS011;33676;51.006;17.180;2023-08-01T06:25:12;3.70;;;3.40;;
47912;SDS011;33676;51.006;17.180;2023-08-01T06:27:41;3.40;;;2.80;;
47912;SDS011;33676;51.006;17.180;2023-08-01T06:30:10;3.50;;;3.20;;
47912;SDS011;33676;51.006;17.180;2023-08-01T06:32:38;4.70;;;3.90;;
47912;SDS011;33676;51.006;17.180;2023-08-01T06:35:07;4.00;;;3.60;;
47912;SDS011;33676;51.006;17.180;2023-08-01T06:37:36;3.40;;;3.00;;
47912;SDS011;33676;51.006;17.180;2023-08-01T06:40:05;3.70;;;3.40;;
47912;SDS011;33676;51.006;17.180;2023-08-01T06:42:36;3.80;;;3.50;;
47912;SDS011;33676;51.006;17.180;2023-08-01T06:45:05;5.10;;;4.00;;
47912;SDS011;33676;51.006;17.180;2023-08-01T06:47:33;4.00;;;3.60;;
47912;SDS011;33676;51.006;17.180;2023-08-01T06:50:02;4.20;;;3.70;;
47912;SDS011;33676;51.006;17.180;2023-08-01T06:52:30;3.60;;;3.30;;
47912;SDS011;33676;51.006;17.180;2023-08-01T06:54:59;5.10;;;3.10;;
47912;SDS011;33676;51.006;17.180;2023-08-01T06:57:27;4.00;;;3.60;;
47912;SDS011;33676;51.006;17.180;2023-08-01T06:59:56;6.40;;;3.10;;
47912;SDS011;33676;51.006;17.180;2023-08-01T07:02:24;4.60;;;3.90;;
47912;SDS011;33676;51.006;17.180;2023-08-01T07:05:18;3.20;;;3.00;;
47912;SDS011;33676;51.006;17.180;2023-08-01T07:07:47;3.50;;;3.20;;
47912;SDS011;33676;51.006;17.180;2023-08-01T07:10:16;4.20;;;3.40;;
47912;SDS011;33676;51.006;17.180;2023-08-01T07:12:44;3.90;;;3.50;;
47912;SDS011;33676;51.006;17.180;2023-08-01T07:15:14;6.00;;;3.60;;
47912;SDS011;33676;51.006;17.180;2023-08-01T07:17:42;3.70;;;3.20;;
47912;SDS011;33676;51.006;17.180;2023-08-01T07:20:11;5.70;;;3.70;;
47912;SDS011;33676;51.006;17.180;2023-08-01T07:22:40;3.80;;;3.40;;
47912;SDS011;33676;51.006;17.180;2023-08-01T07:25:09;3.90;;;3.60;;
47912;SDS011;33676;51.006;17.180;2023-08-01T07:27:40;4.30;;;3.60;;
47912;SDS011;33676;51.006;17.180;2023-08-01T07:30:08;4.00;;;3.70;;
47912;SDS011;33676;51.006;17.180;2023-08-01T07:32:38;3.20;;;3.00;;
47912;SDS011;33676;51.006;17.180;2023-08-01T07:35:07;5.10;;;3.50;;
47912;SDS011;33676;51.006;17.180;2023-08-01T07:37:36;4.80;;;3.70;;
47912;SDS011;33676;51.006;17.180;2023-08-01T07:40:06;4.20;;;3.80;;
47912;SDS011;33676;51.006;17.180;2023-08-01T07:42:35;5.40;;;4.90;;
47912;SDS011;33676;51.006;17.180;2023-08-01T07:45:05;5.10;;;3.80;;
47912;SDS011;33676;51.006;17.180;2023-08-01T07:47:34;4.00;;;3.60;;
47912;SDS011;33676;51.006;17.180;2023-08-01T07:50:08;4.00;;;3.10;;
47912;SDS011;33676;51.006;17.180;2023-08-01T07:52:40;3.30;;;3.00;;
47912;SDS011;33676;51.006;17.180;2023-08-01T07:55:09;6.30;;;5.20;;
47912;SDS011;33676;51.006;17.180;2023-08-01T07:57:37;5.80;;;5.10;;
47912;SDS011;33676;51.006;17.180;2023-08-01T08:00:06;5.20;;;3.60;;
47912;SDS011;33676;51.006;17.180;2023-08-01T08:02:35;4.10;;;3.80;;
47912;SDS011;33676;51.006;17.180;2023-08-01T08:05:05;3.40;;;3.10;;
47912;SDS011;33676;51.006;17.180;2023-08-01T08:07:35;3.70;;;3.40;;
47912;SDS011;33676;51.006;17.180;2023-08-01T08:10:05;5.10;;;3.80;;
47912;SDS011;33676;51.006;17.180;2023-08-01T08:12:37;4.20;;;3.80;;
47912;SDS011;33676;51.006;17.180;2023-08-01T08:15:08;4.30;;;3.90;;
47912;SDS011;33676;51.006;17.180;2023-08-01T08:17:37;3.70;;;3.20;;
47912;SDS011;33676;51.006;17.180;2023-08-01T08:20:06;3.90;;;3.60;;
47912;SDS011;33676;51.006;17.180;2023-08-01T08:22:37;4.00;;;3.60;;
47912;SDS011;33676;51.006;17.180;2023-08-01T08:25:05;3.90;;;3.10;;
47912;SDS011;33676;51.006;17.180;2023-08-01T08:27:34;3.90;;;3.60;;
47912;SDS011;33676;51.006;17.180;2023-08-01T08:30:04;3.50;;;3.20;;
47912;SDS011;33676;51.006;17.180;2023-08-01T08:32:37;3.80;;;3.50;;
47912;SDS011;33676;51.006;17.180;2023-08-01T08:35:06;3.40;;;3.10;;
47912;SDS011;33676;51.006;17.180;2023-08-01T08:37:37;4.10;;;3.70;;
47912;SDS011;33676;51.006;17.180;2023-08-01T08:40:06;8.30;;;3.80;;
47912;SDS011;33676;51.006;17.180;2023-08-01T08:42:37;3.50;;;3.20;;
47912;SDS011;33676;51.006;17.180;2023-08-01T08:45:08;3.90;;;3.20;;
47912;SDS011;33676;51.006;17.180;2023-08-01T08:47:42;3.80;;;3.10;;
47912;SDS011;33676;51.006;17.180;2023-08-01T08:50:13;3.20;;;3.10;;
47912;SDS011;33676;51.006;17.180;2023-08-01T08:52:42;4.30;;;3.80;;
47912;SDS011;33676;51.006;17.180;2023-08-01T08:55:11;4.50;;;3.80;;
47912;SDS011;33676;51.006;17.180;2023-08-01T08:57:40;4.40;;;3.70;;
47912;SDS011;33676;51.006;17.180;2023-08-01T09:00:08;5.50;;;4.30;;
47912;SDS011;33676;51.006;17.180;2023-08-01T09:02:38;4.80;;;3.50;;
47912;SDS011;33676;51.006;17.180;2023-08-01T09:05:07;3.80;;;3.20;;
47912;SDS011;33676;51.006;17.180;2023-08-01T09:07:38;6.00;;;3.80;;
47912;SDS011;33676;51.006;17.180;2023-08-01T09:10:09;4.20;;;3.40;;
47912;SDS011;33676;51.006;17.180;2023-08-01T09:12:38;3.20;;;3.00;;
47912;SDS011;33676;51.006;17.180;2023-08-01T09:15:07;4.70;;;4.00;;
47912;SDS011;33676;51.006;17.180;2023-08-01T09:17:50;4.30;;;3.40;;
47912;SDS011;33676;51.006;17.180;2023-08-01T09:20:20;4.20;;;3.20;;
47912;SDS011;33676;51.006;17.180;2023-08-01T09:22:48;6.20;;;3.60;;
47912;SDS011;33676;51.006;17.180;2023-08-01T09:25:17;3.60;;;3.30;;
47912;SDS011;33676;51.006;17.180;2023-08-01T09:27:45;3.90;;;3.40;;
47912;SDS011;33676;51.006;17.180;2023-08-01T09:30:14;4.20;;;3.20;;
47912;SDS011;33676;51.006;17.180;2023-08-01T09:32:53;3.00;;;2.70;;
47912;SDS011;33676;51.006;17.180;2023-08-01T09:35:24;3.70;;;2.90;;
47912;SDS011;33676;51.006;17.180;2023-08-01T09:37:53;4.90;;;3.30;;
47912;SDS011;33676;51.006;17.180;2023-08-01T09:40:21;4.60;;;3.80;;
47912;SDS011;33676;51.006;17.180;2023-08-01T09:42:50;4.10;;;3.80;;
47912;SDS011;33676;51.006;17.180;2023-08-01T09:45:18;6.10;;;3.50;;
47912;SDS011;33676;51.006;17.180;2023-08-01T09:47:47;3.10;;;2.90;;
47912;SDS011;33676;51.006;17.180;2023-08-01T09:50:21;3.40;;;3.10;;
47912;SDS011;33676;51.006;17.180;2023-08-01T09:52:51;6.00;;;3.10;;
47912;SDS011;33676;51.006;17.180;2023-08-01T09:55:31;3.20;;;2.90;;
47912;SDS011;33676;51.006;17.180;2023-08-01T09:58:03;3.40;;;3.20;;
47912;SDS011;33676;51.006;17.180;2023-08-01T10:00:36;2.90;;;2.80;;
47912;SDS011;33676;51.006;17.180;2023-08-01T10:03:05;2.40;;;2.30;;
47912;SDS011;33676;51.006;17.180;2023-08-01T10:05:34;3.20;;;2.90;;
47912;SDS011;33676;51.006;17.180;2023-08-01T10:08:05;4.00;;;2.60;;
47912;SDS011;33676;51.006;17.180;2023-08-01T10:10:34;4.20;;;3.00;;
47912;SDS011;33676;51.006;17.180;2023-08-01T10:13:03;3.70;;;3.20;;
47912;SDS011;33676;51.006;17.180;2023-08-01T10:15:33;3.50;;;3.10;;
47912;SDS011;33676;51.006;17.180;2023-08-01T10:18:04;4.10;;;3.00;;
47912;SDS011;33676;51.006;17.180;2023-08-01T10:20:34;3.60;;;3.30;;
47912;SDS011;33676;51.006;17.180;2023-08-01T10:23:05;4.80;;;3.10;;
47912;SDS011;33676;51.006;17.180;2023-08-01T10:25:37;4.70;;;3.10;;
47912;SDS011;33676;51.006;17.180;2023-08-01T10:28:07;3.50;;;2.60;;
47912;SDS011;33676;51.006;17.180;2023-08-01T10:30:37;4.60;;;3.30;;
47912;SDS011;33676;51.006;17.180;2023-08-01T10:33:05;3.40;;;3.10;;
47912;SDS011;33676;51.006;17.180;2023-08-01T10:35:35;4.10;;;3.20;;
47912;SDS011;33676;51.006;17.180;2023-08-01T10:38:07;4.20;;;3.30;;
47912;SDS011;33676;51.006;17.180;2023-08-01T10:40:43;3.90;;;3.60;;
47912;SDS011;33676;51.006;17.180;2023-08-01T10:43:22;3.50;;;3.20;;
47912;SDS011;33676;51.006;17.180;2023-08-01T10:46:04;3.40;;;2.70;;
47912;SDS011;33676;51.006;17.180;2023-08-01T10:48:33;2.80;;;2.60;;
47912;SDS011;33676;51.006;17.180;2023-08-01T10:51:01;5.20;;;3.30;;
47912;SDS011;33676;51.006;17.180;2023-08-01T10:53:39;5.60;;;3.90;;
47912;SDS011;33676;51.006;17.180;2023-08-01T10:56:19;3.80;;;3.40;;
47912;SDS011;33676;51.006;17.180;2023-08-01T10:58:49;4.50;;;3.00;;
47912;SDS011;33676;51.006;17.180;2023-08-01T11:01:17;3.40;;;3.10;;
47912;SDS011;33676;51.006;17.180;2023-08-01T11:03:46;3.50;;;3.20;;
47912;SDS011;33676;51.006;17.180;2023-08-01T11:06:14;8.20;;;3.80;;
47912;SDS011;33676;51.006;17.180;2023-08-01T11:08:43;3.90;;;3.60;;
47912;SDS011;33676;51.006;17.180;2023-08-01T11:11:13;3.50;;;2.60;;
47912;SDS011;33676;51.006;17.180;2023-08-01T11:13:54;2.90;;;2.60;;
47912;SDS011;33676;51.006;17.180;2023-08-01T11:16:24;3.20;;;2.90;;
47912;SDS011;33676;51.006;17.180;2023-08-01T11:18:54;3.80;;;3.50;;
47912;SDS011;33676;51.006;17.180;2023-08-01T11:21:26;4.40;;;3.10;;
47912;SDS011;33676;51.006;17.180;2023-08-01T11:23:58;2.80;;;2.60;;
47912;SDS011;33676;51.006;17.180;2023-08-01T11:26:26;3.40;;;3.10;;
47912;SDS011;33676;51.006;17.180;2023-08-01T11:28:55;6.20;;;2.90;;
47912;SDS011;33676;51.006;17.180;2023-08-01T11:31:23;3.40;;;2.80;;
47912;SDS011;33676;51.006;17.180;2023-08-01T11:33:59;5.40;;;3.10;;
47912;SDS011;33676;51.006;17.180;2023-08-01T11:36:28;3.30;;;3.10;;
47912;SDS011;33676;51.006;17.180;2023-08-01T11:38:58;2.60;;;2.50;;
47912;SDS011;33676;51.006;17.180;2023-08-01T11:41:28;2.90;;;2.70;;
47912;SDS011;33676;51.006;17.180;2023-08-01T11:44:01;2.50;;;2.30;;
47912;SDS011;33676;51.006;17.180;2023-08-01T11:46:33;3.00;;;2.40;;
47912;SDS011;33676;51.006;17.180;2023-08-01T11:49:07;2.10;;;2.00;;
47912;SDS011;33676;51.006;17.180;2023-08-01T11:51:43;2.50;;;2.30;;
47912;SDS011;33676;51.006;17.180;2023-08-01T11:54:14;2.90;;;2.70;;
47912;SDS011;33676;51.006;17.180;2023-08-01T11:56:43;3.10;;;2.70;;
47912;SDS011;33676;51.006;17.180;2023-08-01T11:59:14;3.50;;;2.00;;
47912;SDS011;33676;51.006;17.180;2023-08-01T12:01:45;2.30;;;2.20;;
47912;SDS011;33676;51.006;17.180;2023-08-01T12:04:28;2.80;;;2.70;;
47912;SDS011;33676;51.006;17.180;2023-08-01T12:06:56;2.10;;;1.50;;
47912;SDS011;33676;51.006;17.180;2023-08-01T12:09:25;2.20;;;2.10;;
47912;SDS011;33676;51.006;17.180;2023-08-01T12:11:58;3.80;;;2.10;;
47912;SDS011;33676;51.006;17.180;2023-08-01T12:14:30;2.20;;;2.10;;
47912;SDS011;33676;51.006;17.180;2023-08-01T12:16:59;4.30;;;2.20;;
47912;SDS011;33676;51.006;17.180;2023-08-01T12:19:27;2.20;;;2.10;;
47912;SDS011;33676;51.006;17.180;2023-08-01T12:21:56;4.40;;;2.70;;
47912;SDS011;33676;51.006;17.180;2023-08-01T12:24:24;2.50;;;2.20;;
47912;SDS011;33676;51.006;17.180;2023-08-01T12:26:53;2.20;;;2.00;;
47912;SDS011;33676;51.006;17.180;2023-08-01T12:29:22;2.40;;;2.20;;
47912;SDS011;33676;51.006;17.180;2023-08-01T12:31:51;2.80;;;2.40;;
47912;SDS011;33676;51.006;17.180;2023-08-01T12:34:19;2.10;;;1.90;;
47912;SDS011;33676;51.006;17.180;2023-08-01T12:36:48;2.50;;;2.10;;
47912;SDS011;33676;51.006;17.180;2023-08-01T12:39:16;2.20;;;2.00;;
47912;SDS011;33676;51.006;17.180;2023-08-01T12:41:45;2.40;;;1.80;;
47912;SDS011;33676;51.006;17.180;2023-08-01T12:44:14;1.90;;;1.50;;
47912;SDS011;33676;51.006;17.180;2023-08-01T12:46:46;2.00;;;1.90;;
47912;SDS011;33676;51.006;17.180;2023-08-01T12:49:15;3.50;;;2.10;;
47912;SDS011;33676;51.006;17.180;2023-08-01T12:51:43;2.60;;;2.40;;
47912;SDS011;33676;51.006;17.180;2023-08-01T12:54:12;2.60;;;2.40;;
47912;SDS011;33676;51.006;17.180;2023-08-01T12:56:40;2.10;;;1.90;;
47912;SDS011;33676;51.006;17.180;2023-08-01T12:59:09;2.30;;;2.10;;
47912;SDS011;33676;51.006;17.180;2023-08-01T13:01:38;2.90;;;2.10;;
47912;SDS011;33676;51.006;17.180;2023-08-01T13:04:06;2.10;;;1.90;;
47912;SDS011;33676;51.006;17.180;2023-08-01T13:06:35;2.10;;;2.00;;
47912;SDS011;33676;51.006;17.180;2023-08-01T13:09:03;1.90;;;1.80;;
47912;SDS011;33676;51.006;17.180;2023-08-01T13:11:32;2.00;;;1.90;;
47912;SDS011;33676;51.006;17.180;2023-08-01T13:14:00;2.00;;;1.90;;
47912;SDS011;33676;51.006;17.180;2023-08-01T13:16:29;1.80;;;1.70;;
47912;SDS011;33676;51.006;17.180;2023-08-01T13:18:58;2.40;;;1.90;;
47912;SDS011;33676;51.006;17.180;2023-08-01T13:21:26;2.30;;;2.20;;
47912;SDS011;33676;51.006;17.180;2023-08-01T13:23:55;1.70;;;1.60;;
47912;SDS011;33676;51.006;17.180;2023-08-01T13:26:23;3.40;;;1.80;;
47912;SDS011;33676;51.006;17.180;2023-08-01T13:28:51;1.50;;;1.40;;
47912;SDS011;33676;51.006;17.180;2023-08-01T13:31:20;1.70;;;1.70;;
47912;SDS011;33676;51.006;17.180;2023-08-01T13:33:48;1.60;;;1.50;;
47912;SDS011;33676;51.006;17.180;2023-08-01T13:36:17;2.90;;;2.30;;
47912;SDS011;33676;51.006;17.180;2023-08-01T13:38:47;2.10;;;1.80;;
47912;SDS011;33676;51.006;17.180;2023-08-01T13:41:15;2.30;;;2.00;;
47912;SDS011;33676;51.006;17.180;2023-08-01T13:43:44;2.60;;;2.40;;
47912;SDS011;33676;51.006;17.180;2023-08-01T13:46:15;4.10;;;2.40;;
47912;SDS011;33676;51.006;17.180;2023-08-01T13:48:52;2.00;;;1.90;;
47912;SDS011;33676;51.006;17.180;2023-08-01T13:51:21;2.00;;;1.90;;
47912;SDS011;33676;51.006;17.180;2023-08-01T13:53:49;1.90;;;1.60;;
47912;SDS011;33676;51.006;17.180;2023-08-01T13:56:18;2.20;;;2.10;;
47912;SDS011;33676;51.006;17.180;2023-08-01T13:58:46;2.30;;;2.20;;
47912;SDS011;33676;51.006;17.180;2023-08-01T14:01:16;2.40;;;2.20;;
47912;SDS011;33676;51.006;17.180;2023-08-01T14:03:47;2.30;;;1.90;;
47912;SDS011;33676;51.006;17.180;2023-08-01T14:06:18;2.10;;;2.00;;
47912;SDS011;33676;51.006;17.180;2023-08-01T14:08:55;2.20;;;1.80;;
47912;SDS011;33676;51.006;17.180;2023-08-01T14:11:23;3.30;;;2.10;;
47912;SDS011;33676;51.006;17.180;2023-08-01T14:13:52;2.10;;;2.00;;
47912;SDS011;33676;51.006;17.180;2023-08-01T14:16:23;2.80;;;2.50;;
47912;SDS011;33676;51.006;17.180;2023-08-01T14:18:51;2.60;;;2.50;;
47912;SDS011;33676;51.006;17.180;2023-08-01T14:21:22;1.80;;;1.60;;
47912;SDS011;33676;51.006;17.180;2023-08-01T14:23:52;2.90;;;2.50;;
47912;SDS011;33676;51.006;17.180;2023-08-01T14:26:21;2.00;;;1.90;;
47912;SDS011;33676;51.006;17.180;2023-08-01T14:28:53;3.00;;;2.80;;
47912;SDS011;33676;51.006;17.180;2023-08-01T14:31:22;2.30;;;2.20;;
47912;SDS011;33676;51.006;17.180;2023-08-01T14:33:51;2.60;;;2.50;;
47912;SDS011;33676;51.006;17.180;2023-08-01T14:36:19;2.00;;;1.90;;
47912;SDS011;33676;51.006;17.180;2023-08-01T14:38:48;2.30;;;2.00;;
47912;SDS011;33676;51.006;17.180;2023-08-01T14:41:30;1.70;;;1.60;;
47912;SDS011;33676;51.006;17.180;2023-08-01T14:44:16;2.10;;;2.00;;
47912;SDS011;33676;51.006;17.180;2023-08-01T14:46:44;1.80;;;1.70;;